Time;durP1;ratioP1;P1;durP2;ratioP2;P2;SDS_P1;SDS_P2;PMS_P1;PMS_P2;Temp;Humidity;BMP_temperature;BMP_pressure;BME280_temperature;BME280_humidity;BME280_pressure;Samples;Min_cycle;Max_cycle;Signal;HPM_P1;HPM_P2
2023/09/11 07:23:09;;;;;;;12.98;10.48;;;;;;;-145.79;68.90;76376.94;5322223;27;20174;-66
2023/09/11 07:25:41;;;;;;;13.70;10.15;;;;;;;-145.79;68.82;76368.47;5321899;28;20031;-68
2023/09/11 07:28:13;;;;;;;11.57;10.35;;;;;;;-145.79;68.72;76364.22;5321859;28;20059;-68
2023/09/11 07:30:44;;;;;;;12.98;11.13;;;;;;;-145.79;68.71;76359.97;5321662;28;20131;-67
2023/09/11 07:33:16;;;;;;;13.38;11.95;;;;;;;-145.79;69.18;76372.69;5309072;28;20465;-67
2023/09/11 07:35:47;;;;;;;12.27;11.02;;;;;;;-145.79;69.11;76372.69;5322263;28;20020;-68
2023/09/11 07:38:18;;;;;;;12.68;11.32;;;;;;;-145.79;69.17;76355.75;5321228;28;20139;-67
2023/09/11 07:40:50;;;;;;;12.30;11.02;;;;;;;-145.79;69.09;76351.50;5321916;28;20027;-67
2023/09/11 07:43:21;;;;;;;13.25;11.25;;;;;;;-145.79;69.42;76351.50;5321720;28;20417;-67
2023/09/11 07:45:52;;;;;;;14.20;12.63;;;;;;;-145.79;69.09;76334.56;5321013;28;20027;-69
2023/09/11 07:48:24;;;;;;;31.67;28.75;;;;;;;-145.79;68.98;76338.78;5321704;28;20034;-68
2023/09/11 07:50:59;;;;;;;15.45;13.60;;;;;;;-145.79;69.18;76334.56;5320331;28;20044;-66
2023/09/11 07:53:30;;;;;;;15.90;13.43;;;;;;;-145.79;68.55;76326.06;5320541;28;20028;-67
2023/09/11 07:56:08;;;;;;;15.85;13.52;;;;;;;-145.79;68.92;76328.19;5321659;28;20371;-67
2023/09/11 07:58:40;;;;;;;16.88;13.73;;;;;;;-145.79;68.82;76330.31;5320526;28;20099;-67
2023/09/11 08:01:11;;;;;;;16.88;14.57;;;;;;;-145.79;69.00;76323.97;5316858;28;20111;-65
2023/09/11 08:03:44;;;;;;;17.17;14.85;;;;;;;-145.79;69.15;76326.06;5321179;28;20028;-66
2023/09/11 08:06:16;;;;;;;18.08;14.38;;;;;;;-145.79;69.69;76330.31;5320276;28;20057;-64
2023/09/11 08:08:47;;;;;;;15.30;12.80;;;;;;;-145.79;69.57;76326.06;5317876;28;20073;-65
2023/09/11 08:11:19;;;;;;;19.10;14.80;;;;;;;-145.79;69.61;76313.34;5321389;28;20023;-67
2023/09/11 08:13:51;;;;;;;16.45;14.55;;;;;;;-145.79;69.37;76307.00;5320328;28;20031;-67
2023/09/11 08:16:23;;;;;;;17.42;15.00;;;;;;;-145.79;68.90;76304.88;5321442;28;20386;-67
2023/09/11 08:18:54;;;;;;;17.40;14.43;;;;;;;-145.79;68.82;76285.81;5320595;28;20032;-67
2023/09/11 08:21:25;;;;;;;15.90;14.38;;;;;;;-145.79;69.10;76285.81;5319919;28;20050;-67
2023/09/11 08:23:56;;;;;;;18.17;15.48;;;;;;;-145.79;68.61;76279.47;5314684;28;20033;-67
2023/09/11 08:26:28;;;;;;;17.65;15.85;;;;;;;-145.79;68.20;76266.75;5320907;28;20115;-66
2023/09/11 08:29:02;;;;;;;18.40;16.23;;;;;;;-145.79;68.01;76256.16;5320137;28;20024;-67
2023/09/11 08:31:34;;;;;;;17.42;15.57;;;;;;;-145.79;68.03;76245.56;5320937;28;20043;-67
2023/09/11 08:34:05;;;;;;;18.00;15.88;;;;;;;-145.79;67.84;76249.78;5308013;28;20448;-66
2023/09/11 08:36:37;;;;;;;16.38;13.98;;;;;;;-145.79;67.90;76245.56;5306785;28;20431;-66
2023/09/11 08:39:08;;;;;;;17.10;15.55;;;;;;;-145.79;68.11;76241.31;5306657;28;20430;-67
2023/09/11 08:41:42;;;;;;;19.33;15.82;;;;;;;-145.79;67.50;76228.59;5305303;28;20032;-67
2023/09/11 08:44:14;;;;;;;20.45;17.45;;;;;;;-145.79;66.74;76237.06;5306515;28;20031;-66
2023/09/11 08:46:48;;;;;;;17.73;16.13;;;;;;;-145.79;66.74;76234.97;5306354;28;20020;-66
2023/09/11 08:49:22;;;;;;;21.35;17.08;;;;;;;-145.79;66.81;76226.47;5305961;28;20050;-66
2023/09/11 08:51:56;;;;;;;21.30;15.48;;;;;;;-145.79;66.65;76211.66;5306557;28;20031;-66
2023/09/11 08:54:33;;;;;;;19.20;16.27;;;;;;;-145.79;67.00;76205.28;5306326;28;20028;-66
2023/09/11 08:57:06;;;;;;;18.30;16.55;;;;;;;-145.79;66.09;76209.53;5297484;28;20032;-63
2023/09/11 08:59:42;;;;;;;18.65;16.60;;;;;;;-145.79;66.54;76211.66;5303197;28;20026;-64
2023/09/11 09:02:14;;;;;;;18.23;16.02;;;;;;;-145.79;66.56;76205.28;5300690;28;20373;-64
2023/09/11 09:04:47;;;;;;;18.77;15.10;;;;;;;-145.79;65.87;76196.81;5306162;28;20421;-65
2023/09/11 09:07:19;;;;;;;16.92;15.23;;;;;;;-145.79;66.32;76177.75;5306414;28;20028;-65
2023/09/11 09:09:51;;;;;;;20.30;16.35;;;;;;;-145.79;65.62;76169.25;5305227;28;20020;-66
2023/09/11 09:12:25;;;;;;;19.40;17.50;;;;;;;-145.79;64.93;76152.31;5306352;28;20077;-66
2023/09/11 09:14:57;;;;;;;16.98;15.30;;;;;;;-145.79;64.24;76148.06;5300402;28;20044;-67
2023/09/11 09:17:28;;;;;;;18.52;15.75;;;;;;;-145.79;64.35;76143.84;5305136;28;20020;-67
2023/09/11 09:19:59;;;;;;;17.15;15.45;;;;;;;-145.79;63.71;76135.38;5305641;28;20028;-67
2023/09/11 09:22:31;;;;;;;18.15;16.45;;;;;;;-145.79;63.71;76143.84;5305561;28;20040;-67
2023/09/11 09:25:02;;;;;;;18.40;14.25;;;;;;;-145.79;63.60;76126.88;5305009;28;20042;-67
2023/09/11 09:27:35;;;;;;;15.05;13.55;;;;;;;-145.79;63.49;76109.94;5305741;28;20052;-67
2023/09/11 09:30:18;;;;;;;15.50;13.38;;;;;;;-145.79;62.20;76109.94;5304715;28;20057;-68
2023/09/11 09:32:51;;;;;;;14.63;13.07;;;;;;;-145.79;61.18;76103.56;5297986;28;20039;-67
2023/09/11 09:35:29;;;;;;;14.15;11.50;;;;;;;-145.79;61.46;76088.75;5305547;28;20024;-67
2023/09/11 09:38:01;;;;;;;16.92;13.00;;;;;;;-145.79;62.05;76090.88;5304887;28;20028;-67
2023/09/11 09:40:39;;;;;;;14.60;12.27;;;;;;;-145.79;62.46;76084.50;5305147;28;20063;-67
2023/09/11 09:43:19;;;;;;;12.38;11.10;;;;;;;-145.79;59.67;76076.03;5305527;28;20039;-67
2023/09/11 09:45:50;;;;;;;14.30;11.30;;;;;;;-145.79;59.81;76063.31;5295244;28;20081;-67
2023/09/11 09:48:21;;;;;;;12.32;10.85;;;;;;;-145.79;59.38;76042.13;5304345;28;20024;-67
2023/09/11 09:51:01;;;;;;;12.63;11.40;;;;;;;-145.79;57.78;76042.13;5305041;28;20360;-67
2023/09/11 09:53:35;;;;;;;11.30;9.95;;;;;;;-145.79;57.60;76025.19;5304788;28;20032;-67
2023/09/11 09:56:08;;;;;;;10.90;9.77;;;;;;;-145.79;58.05;76020.94;5300033;28;20077;-68
2023/09/11 09:58:42;;;;;;;10.73;9.48;;;;;;;-145.79;56.54;76020.94;5297129;28;20032;-67
2023/09/11 10:01:17;;;;;;;11.73;10.52;;;;;;;-145.79;57.05;76004.00;5301830;28;20032;-67
2023/09/11 10:03:51;;;;;;;17.48;15.50;;;;;;;-145.79;55.31;76004.00;5304003;28;20028;-67
2023/09/11 10:06:27;;;;;;;11.05;8.88;;;;;;;-145.79;55.21;76006.09;5293503;28;20028;-66
2023/09/11 10:09:10;;;;;;;11.55;9.20;;;;;;;-145.79;56.08;76012.47;5305040;28;20028;-67
2023/09/11 10:11:43;;;;;;;10.20;9.20;;;;;;;-145.79;55.92;75995.50;5304544;28;20028;-67
2023/09/11 10:14:17;;;;;;;11.75;10.45;;;;;;;-145.79;56.70;75999.75;5303939;28;20044;-67
2023/09/11 10:16:49;;;;;;;13.57;9.50;;;;;;;-145.79;57.20;75991.28;5296841;28;20112;-67
2023/09/11 10:19:21;;;;;;;18.38;11.32;;;;;;;-145.79;56.64;75991.28;5303850;28;20481;-68
2023/09/11 10:21:52;;;;;;;10.35;9.32;;;;;;;-145.79;57.00;75972.22;5297013;28;20104;-67
2023/09/11 10:24:23;;;;;;;13.73;9.25;;;;;;;-145.79;55.59;75965.84;5303330;28;20016;-68
2023/09/11 10:26:57;;;;;;;12.32;9.57;;;;;;;-145.79;55.33;75948.91;5297626;28;20074;-67
2023/09/11 10:29:48;;;;;;;11.82;9.77;;;;;;;-145.79;55.39;75944.66;5303994;28;20026;-66
2023/09/11 10:32:32;;;;;;;12.65;8.70;;;;;;;-145.79;54.21;75938.31;5304521;28;20054;-67
2023/09/11 10:35:05;;;;;;;10.63;7.90;;;;;;;-145.79;53.55;75931.94;5303674;28;20028;-67
2023/09/11 10:37:40;;;;;;;8.50;7.60;;;;;;;-145.79;54.03;75923.47;5304011;28;20035;-67
2023/09/11 10:40:13;;;;;;;11.57;8.18;;;;;;;-145.79;54.18;75906.53;5297250;28;20081;-67
2023/09/11 10:42:44;;;;;;;8.73;7.65;;;;;;;-145.79;53.36;75910.75;5303167;28;20035;-67
2023/09/11 10:45:29;;;;;;;14.05;8.77;;;;;;;-145.79;53.36;75902.28;5304048;28;20020;-67
2023/09/11 10:48:01;;;;;;;9.57;8.77;;;;;;;-145.79;53.17;75906.53;5296185;28;20032;-68
2023/09/11 10:50:43;;;;;;;9.77;8.13;;;;;;;-145.79;53.53;75889.56;5304135;28;20119;-67
2023/09/11 10:53:14;;;;;;;13.13;8.35;;;;;;;-145.79;53.18;75883.22;5303843;28;20059;-67
2023/09/11 10:55:45;;;;;;;11.57;7.97;;;;;;;-145.79;52.27;75868.38;5302804;28;20506;-67
2023/09/11 10:58:17;;;;;;;9.95;8.98;;;;;;;-145.79;52.72;75885.34;5300793;28;20016;-68
2023/09/11 11:00:52;;;;;;;9.80;8.75;;;;;;;-145.79;52.73;75868.38;5302929;28;20418;-67
2023/09/11 11:03:29;;;;;;;11.20;8.32;;;;;;;-145.79;52.81;75868.38;5302811;28;20027;-67
2023/09/11 11:06:01;;;;;;;11.32;7.95;;;;;;;-145.79;51.99;75845.06;5303707;28;20035;-68
2023/09/11 11:08:34;;;;;;;10.23;7.93;;;;;;;-145.79;51.58;75845.06;5302930;28;20441;-67
2023/09/11 11:11:19;;;;;;;10.93;7.45;;;;;;;-145.79;51.49;75838.72;5303037;28;20067;-67
2023/09/11 11:14:11;;;;;;;8.07;7.15;;;;;;;-145.79;51.16;75834.47;5294731;28;20032;-68
2023/09/11 11:16:55;;;;;;;10.27;8.02;;;;;;;-145.79;50.72;75836.59;5303170;28;20115;-67
2023/09/11 11:19:32;;;;;;;11.63;7.47;;;;;;;-145.79;50.58;75830.25;5295369;28;20028;-68
2023/09/11 11:22:07;;;;;;;12.18;9.30;;;;;;;-145.79;50.20;75838.72;5294822;28;20313;-68
2023/09/11 11:24:54;;;;;;;12.40;8.27;;;;;;;-145.79;50.78;75809.06;5294114;28;20031;-67
2023/09/11 11:27:25;;;;;;;9.65;7.70;;;;;;;-145.79;50.47;75798.47;5286826;28;20046;-68
2023/09/11 11:29:57;;;;;;;10.23;8.48;;;;;;;-145.79;50.25;75796.34;5291740;28;20020;-67
2023/09/11 11:32:30;;;;;;;9.02;7.97;;;;;;;-145.79;49.95;75792.09;5275487;28;20032;-66
2023/09/11 11:35:04;;;;;;;12.50;7.88;;;;;;;-145.79;50.23;75764.56;5294814;28;20035;-66
2023/09/11 11:37:37;;;;;;;10.95;7.75;;;;;;;-145.79;50.49;75760.31;5289066;28;20070;-66
2023/09/11 11:40:09;;;;;;;8.85;7.90;;;;;;;-145.79;49.71;75753.97;5290833;28;20032;-67
2023/09/11 11:42:41;;;;;;;10.82;7.72;;;;;;;-145.79;49.98;75743.38;5284212;28;20048;-66
2023/09/11 11:45:13;;;;;;;12.43;7.82;;;;;;;-145.79;49.59;75720.06;5283698;28;20082;-67
2023/09/11 11:47:44;;;;;;;8.32;7.22;;;;;;;-145.79;49.57;75715.81;5291397;28;20020;-65
2023/09/11 11:50:18;;;;;;;7.90;7.13;;;;;;;-145.79;49.43;75720.06;5295004;28;20391;-67
2023/09/11 11:52:49;;;;;;;12.65;11.55;;;;;;;-145.79;48.96;75711.59;5291303;28;20388;-66
2023/09/11 11:55:21;;;;;;;8.48;6.45;;;;;;;-145.79;49.16;75694.63;5287463;28;20032;-66
2023/09/11 11:57:53;;;;;;;15.40;13.18;;;;;;;-145.79;48.38;75705.22;5292084;28;20031;-66
2023/09/11 12:00:25;;;;;;;8.55;7.53;;;;;;;-145.79;47.57;75694.63;5285749;28;20024;-66
2023/09/11 12:03:03;;;;;;;7.80;5.85;;;;;;;-145.79;47.63;75677.69;5293585;28;20479;-65
2023/09/11 12:05:36;;;;;;;8.52;5.93;;;;;;;-145.79;47.22;75671.34;5290063;28;20016;-67
2023/09/11 12:08:12;;;;;;;7.38;6.25;;;;;;;-145.79;47.37;75675.56;5292169;28;20024;-67
2023/09/11 12:10:45;;;;;;;6.60;5.65;;;;;;;-145.79;47.08;75660.75;5284676;28;20036;-68
2023/09/11 12:13:18;;;;;;;7.68;5.93;;;;;;;-145.79;46.61;75675.56;5277049;28;20024;-67
2023/09/11 12:15:54;;;;;;;6.82;6.00;;;;;;;-145.79;46.40;75656.50;5289298;28;20020;-67
2023/09/11 12:18:28;;;;;;;8.25;5.93;;;;;;;-145.79;46.73;75639.56;5293925;28;20115;-68
2023/09/11 12:21:05;;;;;;;8.27;5.60;;;;;;;-145.79;45.62;75652.25;5296701;28;20040;-67
2023/09/11 12:23:37;;;;;;;8.18;5.93;;;;;;;-145.79;45.52;75660.75;5296082;28;20448;-67
2023/09/11 12:26:08;;;;;;;6.35;5.47;;;;;;;-145.79;45.37;75658.63;5301224;28;20036;-67
2023/09/11 12:28:40;;;;;;;7.82;4.93;;;;;;;-145.79;45.52;75641.66;5305078;28;20020;-67
2023/09/11 12:31:11;;;;;;;6.93;5.47;;;;;;;-145.79;46.03;75633.19;5300420;28;20149;-67
2023/09/11 12:33:43;;;;;;;6.25;5.05;;;;;;;-145.79;45.12;75618.38;5304255;28;20099;-68
2023/09/11 12:36:22;;;;;;;7.40;5.03;;;;;;;-145.79;44.40;75616.25;5306121;28;20068;-67
2023/09/11 12:38:54;;;;;;;8.93;5.22;;;;;;;-145.79;43.95;75635.31;5304123;28;20016;-68
2023/09/11 12:41:26;;;;;;;7.05;4.43;;;;;;;-145.79;43.89;75645.91;5304735;28;20085;-68
2023/09/11 12:43:59;;;;;;;4.80;4.25;;;;;;;-145.79;43.87;75641.66;5306766;28;20478;-67
2023/09/11 12:46:31;;;;;;;7.93;5.32;;;;;;;-145.79;44.07;75618.38;5305774;28;20096;-67
2023/09/11 12:49:02;;;;;;;6.65;5.50;;;;;;;-145.79;44.40;75603.53;5297907;28;20103;-68
2023/09/11 12:51:36;;;;;;;5.32;4.28;;;;;;;-145.79;42.11;75597.19;5306319;28;20020;-67
2023/09/11 12:54:07;;;;;;;7.45;3.88;;;;;;;-145.79;41.44;75622.59;5305602;28;20082;-68
2023/09/11 12:56:39;;;;;;;5.90;3.90;;;;;;;-145.79;41.63;75584.47;5303474;28;20012;-68
2023/09/11 12:59:10;;;;;;;5.65;3.72;;;;;;;-145.79;41.67;75592.94;5306580;28;20020;-67
2023/09/11 13:01:42;;;;;;;4.85;4.15;;;;;;;-145.79;42.35;75576.00;5300525;28;20027;-67
2023/09/11 13:04:13;;;;;;;13.15;12.00;;;;;;;-145.79;42.25;75569.63;5305214;28;20055;-68
2023/09/11 13:06:44;;;;;;;10.55;5.93;;;;;;;-145.79;42.63;75533.63;5306109;28;20479;-68
2023/09/11 13:09:20;;;;;;;5.85;4.35;;;;;;;-145.79;41.22;75546.34;5305709;28;20032;-67
2023/09/11 13:11:51;;;;;;;7.60;6.43;;;;;;;-145.79;41.26;75533.63;5305588;28;20039;-67
2023/09/11 13:14:22;;;;;;;4.03;3.30;;;;;;;-145.79;40.77;75546.34;5301194;28;20028;-67
2023/09/11 13:16:54;;;;;;;7.10;4.25;;;;;;;-145.79;41.17;75542.09;5304592;28;20379;-68
2023/09/11 13:19:25;;;;;;;6.82;4.00;;;;;;;-145.79;41.01;75533.63;5300956;28;20035;-67
2023/09/11 13:21:57;;;;;;;5.20;4.68;;;;;;;-145.79;40.95;75512.44;5305430;28;20372;-67
2023/09/11 13:24:29;;;;;;;6.00;4.75;;;;;;;-145.79;40.86;75529.38;5303244;28;20089;-67
2023/09/11 13:27:00;;;;;;;5.30;3.88;;;;;;;-145.79;40.92;75516.66;5301576;28;20028;-71
2023/09/11 13:29:31;;;;;;;6.35;4.03;;;;;;;-145.79;41.57;75525.16;5290671;28;20027;-71
2023/09/11 13:32:03;;;;;;;7.50;4.70;;;;;;;-145.79;41.58;75535.75;5301075;28;20032;-67
2023/09/11 13:34:34;;;;;;;5.95;3.92;;;;;;;-145.79;40.31;75535.75;5297818;28;20033;-68
2023/09/11 13:37:06;;;;;;;7.20;4.43;;;;;;;-145.79;40.60;75516.66;5299663;28;20053;-68
2023/09/11 13:39:37;;;;;;;8.55;4.53;;;;;;;-145.79;40.90;75484.88;5294448;28;20375;-68
2023/09/11 13:42:08;;;;;;;5.00;3.70;;;;;;;-145.79;40.31;75478.53;5292969;28;20060;-68
2023/09/11 13:44:40;;;;;;;5.72;3.75;;;;;;;-145.79;40.32;75465.81;5304525;28;20034;-67
2023/09/11 13:47:11;;;;;;;8.52;4.60;;;;;;;-145.79;40.34;75474.28;5294279;28;20495;-67
2023/09/11 13:49:42;;;;;;;6.18;4.60;;;;;;;-145.79;41.20;75463.69;5292098;28;20044;-68
2023/09/11 13:52:14;;;;;;;4.57;3.78;;;;;;;-145.79;41.34;75476.41;5295149;28;20029;-68
2023/09/11 13:54:46;;;;;;;7.30;4.65;;;;;;;-145.79;41.62;75499.72;5296969;28;20025;-68
2023/09/11 13:57:17;;;;;;;6.13;3.97;;;;;;;-145.79;41.98;75499.72;5287376;28;20480;-67
2023/09/11 13:59:49;;;;;;;7.43;4.95;;;;;;;-145.79;41.86;75512.44;5299727;28;20029;-67
2023/09/11 14:02:20;;;;;;;6.15;3.75;;;;;;;-145.79;42.08;75518.78;5298437;28;20074;-68
2023/09/11 14:04:51;;;;;;;7.05;6.15;;;;;;;-145.79;41.73;75529.38;5295821;28;20475;-67
2023/09/11 14:07:24;;;;;;;5.70;4.40;;;;;;;-145.79;41.90;75550.56;5302879;28;20069;-68
2023/09/11 14:09:55;;;;;;;6.95;4.05;;;;;;;-145.79;41.77;75576.00;5304434;28;20352;-68
2023/09/11 14:12:26;;;;;;;8.35;4.60;;;;;;;-145.79;42.18;75569.63;5301643;28;20051;-67
2023/09/11 14:14:58;;;;;;;6.03;3.97;;;;;;;-145.79;42.82;75561.16;5300455;28;20025;-68
2023/09/11 14:17:29;;;;;;;4.90;4.03;;;;;;;-145.79;42.32;75554.81;5304675;28;20039;-67
2023/09/11 14:20:00;;;;;;;6.40;3.85;;;;;;;-145.79;41.79;75539.97;5302980;28;20089;-67
2023/09/11 14:22:32;;;;;;;10.45;4.07;;;;;;;-145.79;41.42;75523.03;5286800;28;20336;-67
2023/09/11 14:25:03;;;;;;;6.35;4.18;;;;;;;-145.79;42.14;75520.91;5295506;28;20028;-70
2023/09/11 14:27:36;;;;;;;5.57;4.18;;;;;;;-145.79;41.94;75523.03;5301033;28;20035;-69
2023/09/11 14:30:07;;;;;;;6.15;3.88;;;;;;;-145.79;41.85;75512.44;5300451;28;20028;-69
2023/09/11 14:32:39;;;;;;;8.00;4.47;;;;;;;-145.79;41.99;75510.31;5303131;28;20028;-69
2023/09/11 14:35:10;;;;;;;6.22;3.70;;;;;;;-145.79;42.34;75512.44;5304300;28;20031;-68
2023/09/11 14:37:41;;;;;;;6.38;3.92;;;;;;;-145.79;42.37;75529.38;5300199;28;20073;-69
2023/09/11 14:40:13;;;;;;;5.82;4.30;;;;;;;-145.79;42.70;75527.25;5293117;28;20063;-69
2023/09/11 14:42:44;;;;;;;4.50;3.78;;;;;;;-145.79;43.12;75533.63;5294999;28;20073;-69
2023/09/11 14:45:16;;;;;;;12.18;5.20;;;;;;;-145.79;44.33;75537.84;5303939;28;20035;-69
2023/09/11 14:47:47;;;;;;;8.65;5.60;;;;;;;-145.79;45.39;75542.09;5302560;28;20043;-69
2023/09/11 14:50:19;;;;;;;8.48;5.50;;;;;;;-145.79;45.71;75571.75;5299089;28;20088;-68
2023/09/11 14:52:51;;;;;;;7.32;5.30;;;;;;;-145.79;46.50;75578.13;5303936;28;20084;-68
2023/09/11 14:55:22;;;;;;;9.27;6.60;;;;;;;-145.79;46.97;75588.72;5305084;28;20024;-67
2023/09/11 14:57:54;;;;;;;11.10;6.20;;;;;;;-145.79;47.47;75607.78;5303932;28;20038;-68
2023/09/11 15:00:25;;;;;;;6.75;5.70;;;;;;;-145.79;47.55;75616.25;5299243;28;20055;-68
2023/09/11 15:02:56;;;;;;;8.52;7.70;;;;;;;-145.79;48.03;75628.97;5295764;28;20071;-67
2023/09/11 15:05:28;;;;;;;13.90;11.77;;;;;;;-145.79;48.02;75628.97;5301559;28;20064;-67
2023/09/11 15:07:59;;;;;;;13.20;6.65;;;;;;;-145.79;48.26;75626.84;5302628;28;20082;-66
2023/09/11 15:10:30;;;;;;;8.77;6.40;;;;;;;-145.79;48.10;75624.72;5296840;28;20203;-67
2023/09/11 15:13:02;;;;;;;12.15;7.40;;;;;;;-145.79;48.69;75635.31;5298847;28;20024;-68
2023/09/11 15:15:33;;;;;;;8.57;7.32;;;;;;;-145.79;48.98;75643.78;5300397;28;20099;-67
2023/09/11 15:18:04;;;;;;;7.57;6.70;;;;;;;-145.79;49.23;75658.63;5296891;28;20024;-67
2023/09/11 15:20:36;;;;;;;9.70;7.38;;;;;;;-145.79;49.37;75667.09;5300315;28;20106;-72
2023/09/11 15:23:07;;;;;;;9.80;7.00;;;;;;;-145.79;49.38;75681.94;5293190;28;20036;-67
2023/09/11 15:25:38;;;;;;;12.10;7.63;;;;;;;-145.79;49.64;75703.13;5299508;28;20085;-69
2023/09/11 15:28:10;;;;;;;11.63;6.57;;;;;;;-145.79;50.36;75698.88;5302563;28;20024;-68
2023/09/11 15:30:41;;;;;;;10.50;6.82;;;;;;;-145.79;50.09;75715.81;5297116;28;20020;-68
2023/09/11 15:33:12;;;;;;;9.32;6.82;;;;;;;-145.79;49.97;75741.25;5303495;28;20032;-67
2023/09/11 15:36:06;;;;;;;6.85;6.20;;;;;;;-145.79;49.81;75743.38;5298060;28;20028;-67
2023/09/11 15:38:40;;;;;;;9.13;5.68;;;;;;;-145.79;49.56;75775.16;5294331;28;20061;-66
2023/09/11 15:41:11;;;;;;;8.85;5.18;;;;;;;-145.79;49.62;75783.63;5295597;28;20027;-67
2023/09/11 15:43:43;;;;;;;8.75;5.20;;;;;;;-145.79;49.67;75779.38;5300789;28;20020;-66
2023/09/11 15:46:16;;;;;;;8.00;5.57;;;;;;;-145.79;49.64;75777.28;5302090;28;20102;-67
2023/09/11 15:48:47;;;;;;;6.55;5.47;;;;;;;-145.79;49.91;75777.28;5306937;28;20020;-67
2023/09/11 15:51:19;;;;;;;6.50;5.45;;;;;;;-145.79;50.02;75783.63;5301736;28;20039;-68
2023/09/11 15:53:50;;;;;;;7.25;4.85;;;;;;;-145.79;49.51;75775.16;5306723;28;20032;-68
2023/09/11 15:56:21;;;;;;;7.65;5.10;;;;;;;-145.79;49.85;75792.09;5300138;28;20371;-67
2023/09/11 15:58:53;;;;;;;8.32;5.97;;;;;;;-145.79;50.17;75779.38;5297023;28;20024;-68
2023/09/11 16:01:24;;;;;;;8.48;5.93;;;;;;;-145.79;50.48;75770.91;5306611;28;20101;-68
2023/09/11 16:03:55;;;;;;;7.93;5.53;;;;;;;-145.79;51.40;75775.16;5299099;28;20035;-68
2023/09/11 16:06:27;;;;;;;7.68;6.10;;;;;;;-145.79;52.17;75779.38;5294679;28;20379;-68
2023/09/11 16:08:58;;;;;;;10.02;6.60;;;;;;;-145.79;52.64;75777.28;5297361;28;20028;-67
2023/09/11 16:11:29;;;;;;;8.10;6.97;;;;;;;-145.79;52.84;75787.88;5304747;28;20407;-67
2023/09/11 16:14:01;;;;;;;8.32;6.50;;;;;;;-145.79;53.05;75775.16;5302796;28;20046;-68
2023/09/11 16:16:33;;;;;;;12.98;8.70;;;;;;;-145.79;53.64;75794.22;5304418;28;20016;-67
2023/09/11 16:19:05;;;;;;;8.45;6.65;;;;;;;-145.79;53.69;75789.97;5296852;28;20025;-67
2023/09/11 16:21:36;;;;;;;9.32;7.78;;;;;;;-145.79;53.91;75796.34;5289789;28;20522;-68
2023/09/11 16:24:10;;;;;;;11.57;8.07;;;;;;;-145.79;53.98;75813.28;5287465;28;20037;-67
2023/09/11 16:26:41;;;;;;;52.67;48.10;;;;;;;-145.79;53.88;75811.19;5281644;28;20496;-67
2023/09/11 16:29:13;;;;;;;11.60;10.27;;;;;;;-145.79;53.94;75802.69;5295225;28;20069;-68
2023/09/11 16:31:45;;;;;;;9.52;7.70;;;;;;;-145.79;54.05;75819.66;5279807;28;20140;-69
2023/09/11 16:34:16;;;;;;;10.65;8.25;;;;;;;-145.79;54.24;75819.66;5289594;28;20234;-68
2023/09/11 16:36:50;;;;;;;10.35;8.90;;;;;;;-145.79;53.80;75813.28;5271781;28;20020;-68
2023/09/11 16:39:21;;;;;;;9.70;7.28;;;;;;;-145.79;53.64;75794.22;5289325;28;20183;-67
2023/09/11 16:41:53;;;;;;;9.52;7.13;;;;;;;-145.79;53.90;75815.41;5296059;28;20107;-68
2023/09/11 16:44:25;;;;;;;9.65;7.45;;;;;;;-145.79;53.94;75834.47;5287049;28;20032;-68
2023/09/11 16:46:56;;;;;;;8.57;7.72;;;;;;;-145.79;53.78;75813.28;5283919;28;20044;-68
2023/09/11 16:49:27;;;;;;;7.78;6.97;;;;;;;-145.79;53.38;75815.41;5287458;28;20036;-67
2023/09/11 16:51:59;;;;;;;9.13;7.05;;;;;;;-145.79;53.29;75832.34;5283904;28;20032;-68
2023/09/11 16:54:30;;;;;;;7.20;6.47;;;;;;;-145.79;52.92;75830.25;5294258;28;20052;-68
